createdAt,value
2019-02-05T00:00:39.339Z,95517.93
2019-02-05T00:03:11.410Z,95520.06
2019-02-05T00:05:40.038Z,95519.10
2019-02-05T00:08:08.826Z,95531.72
2019-02-05T00:10:37.460Z,95526.31
2019-02-05T00:13:06.303Z,95525.14
2019-02-05T00:15:35.254Z,95525.84
2019-02-05T00:18:04.076Z,95526.96
2019-02-05T00:20:32.706Z,95522.07
2019-02-05T00:23:01.396Z,95529.52
2019-02-05T00:25:30.017Z,95530.04
2019-02-05T00:27:58.732Z,95528.95
2019-02-05T00:30:27.795Z,95523.42
2019-02-05T00:32:56.427Z,95528.25
2019-02-05T00:35:25.138Z,95521.30
2019-02-05T00:37:53.788Z,95531.68
2019-02-05T00:40:22.514Z,95537.59
2019-02-05T00:42:51.104Z,95530.09
2019-02-05T00:45:21.161Z,95532.41
2019-02-05T00:47:49.782Z,95527.59
2019-02-05T00:50:19.415Z,95524.69
2019-02-05T00:52:48.068Z,95517.22
2019-02-05T00:55:18.299Z,95530.18
2019-02-05T00:57:47.031Z,95524.91
2019-02-05T01:00:18.939Z,95522.22
2019-02-05T01:02:47.742Z,95519.00
2019-02-05T01:05:16.775Z,95521.92
2019-02-05T01:07:45.560Z,95521.75
2019-02-05T01:10:14.889Z,95518.52
2019-02-05T01:12:43.523Z,95512.23
2019-02-05T01:15:20.430Z,95506.34
2019-02-05T01:17:49.057Z,95509.17
2019-02-05T01:20:19.192Z,95506.52
2019-02-05T01:22:49.461Z,95507.05
2019-02-05T01:25:21.504Z,95498.94
2019-02-05T01:27:50.900Z,95507.10
2019-02-05T01:30:24.617Z,95511.25
2019-02-05T01:32:53.536Z,95509.17
2019-02-05T01:35:22.556Z,95501.94
2019-02-05T01:37:51.146Z,95505.38
2019-02-05T01:40:21.664Z,95502.83
2019-02-05T01:42:50.497Z,95496.68
2019-02-05T01:45:20.870Z,95490.70
2019-02-05T01:47:49.484Z,95488.70
2019-02-05T01:50:22.833Z,95487.05
2019-02-05T01:52:51.637Z,95499.71
2019-02-05T01:55:20.538Z,95488.66
2019-02-05T01:57:49.277Z,95488.80
2019-02-05T02:00:23.438Z,95491.88
2019-02-05T02:02:52.028Z,95486.28
2019-02-05T02:05:20.577Z,95490.75
2019-02-05T02:07:49.527Z,95488.16
2019-02-05T02:10:21.177Z,95481.87
2019-02-05T02:12:49.893Z,95488.50
2019-02-05T02:15:18.999Z,95483.80
2019-02-05T02:17:47.821Z,95492.41
2019-02-05T02:20:20.519Z,95486.55
2019-02-05T02:22:49.176Z,95484.38
2019-02-05T02:25:18.507Z,95489.28
2019-02-05T02:27:48.241Z,95484.38
2019-02-05T02:30:28.580Z,95485.27
2019-02-05T02:32:57.317Z,95496.05
2019-02-05T02:35:25.944Z,95491.56
2019-02-05T02:37:54.993Z,95482.57
2019-02-05T02:40:23.693Z,95487.31
2019-02-05T02:42:52.326Z,95492.64
2019-02-05T02:45:20.923Z,95493.62
2019-02-05T02:47:49.554Z,95496.85
2019-02-05T02:50:19.875Z,95500.11
2019-02-05T02:52:48.953Z,95501.80
2019-02-05T02:55:17.627Z,95495.64
2019-02-05T02:57:46.251Z,95501.52
2019-02-05T03:00:17.221Z,95507.11
2019-02-05T03:02:46.458Z,95500.30
2019-02-05T03:05:17.272Z,95495.17
2019-02-05T03:07:46.773Z,95501.66
2019-02-05T03:10:23.330Z,95492.66
2019-02-05T03:12:52.305Z,95496.32
2019-02-05T03:15:21.026Z,95509.13
2019-02-05T03:17:49.654Z,95498.05
2019-02-05T03:20:18.408Z,95491.50
2019-02-05T03:22:47.038Z,95491.38
2019-02-05T03:25:21.541Z,95495.08
2019-02-05T03:27:53.685Z,95494.34
2019-02-05T03:30:23.333Z,95489.55
2019-02-05T03:32:53.249Z,95489.70
2019-02-05T03:35:22.127Z,95493.84
2019-02-05T03:37:50.691Z,95489.55
2019-02-05T03:40:31.765Z,95487.23
2019-02-05T03:43:00.414Z,95494.15
2019-02-05T03:45:31.831Z,95499.64
2019-02-05T03:48:02.387Z,95489.94
2019-02-05T03:50:33.761Z,95495.31
2019-02-05T03:53:20.640Z,95489.59
2019-02-05T03:56:04.055Z,95487.02
2019-02-05T03:58:35.650Z,95485.62
2019-02-05T04:01:27.173Z,95488.37
2019-02-05T04:04:04.798Z,95480.56
2019-02-05T04:06:59.020Z,95489.14
2019-02-05T04:09:49.993Z,95491.19
2019-02-05T04:12:24.386Z,95494.91
2019-02-05T04:14:59.315Z,95490.41
2019-02-05T04:17:39.696Z,95498.50
2019-02-05T04:20:20.205Z,95495.55
2019-02-05T04:23:03.467Z,95492.83
2019-02-05T04:25:37.775Z,95487.16
2019-02-05T04:28:34.955Z,95489.98
2019-02-05T04:31:24.561Z,95492.44
2019-02-05T04:34:07.924Z,95480.80
2019-02-05T04:36:48.122Z,95482.11
2019-02-05T04:39:25.445Z,95488.72
2019-02-05T04:42:09.005Z,95480.57
2019-02-05T04:44:49.615Z,95482.70
2019-02-05T04:47:29.734Z,95482.75
2019-02-05T04:50:01.285Z,95481.06
2019-02-05T04:52:44.862Z,95477.62
2019-02-05T04:55:22.389Z,95479.94
2019-02-05T04:58:25.741Z,95480.52
2019-02-05T05:01:17.145Z,95483.56
2019-02-05T05:04:08.087Z,95488.23
2019-02-05T05:07:01.273Z,95483.09
2019-02-05T05:09:41.925Z,95490.47
2019-02-05T05:12:10.599Z,95501.80
2019-02-05T05:14:39.624Z,95506.27
2019-02-05T05:17:08.309Z,95497.73
2019-02-05T05:19:36.943Z,95498.27
2019-02-05T05:22:06.172Z,95498.46
2019-02-05T05:24:34.982Z,95503.26
2019-02-05T05:27:05.409Z,95497.89
2019-02-05T05:29:34.234Z,95500.45
2019-02-05T05:32:03.410Z,95508.05
2019-02-05T05:34:32.043Z,95502.83
2019-02-05T05:36:59.377Z,95511.12
2019-02-05T05:39:28.055Z,95510.84
2019-02-05T05:41:56.616Z,95509.09
2019-02-05T05:44:25.252Z,95506.56
2019-02-05T05:46:53.937Z,95512.39
2019-02-05T05:49:22.942Z,95518.55
2019-02-05T05:51:51.577Z,95521.59
2019-02-05T05:54:20.282Z,95523.11
2019-02-05T05:56:48.834Z,95527.02
2019-02-05T05:59:17.480Z,95527.70
2019-02-05T06:01:46.143Z,95531.89
2019-02-05T06:04:14.869Z,95525.05
2019-02-05T06:06:43.778Z,95529.46
2019-02-05T06:09:12.660Z,95539.69
2019-02-05T06:11:42.297Z,95533.67
2019-02-05T06:14:10.932Z,95539.92
2019-02-05T06:16:39.614Z,95546.48
2019-02-05T06:19:08.377Z,95538.72
2019-02-05T06:21:37.015Z,95536.64
2019-02-05T06:24:05.911Z,95538.33
2019-02-05T06:26:34.567Z,95540.91
2019-02-05T06:29:03.195Z,95540.38
2019-02-05T06:31:31.867Z,95543.95
2019-02-05T06:34:00.606Z,95545.22
2019-02-05T06:36:29.394Z,95549.98
2019-02-05T06:38:58.014Z,95540.00
2019-02-05T06:41:26.660Z,95550.56
2019-02-05T06:43:55.299Z,95543.52
2019-02-05T06:46:23.991Z,95548.33
2019-02-05T06:48:52.613Z,95542.94
2019-02-05T06:51:21.255Z,95547.83
2019-02-05T06:53:49.932Z,95542.73
2019-02-05T06:56:18.926Z,95531.84
2019-02-05T06:58:47.507Z,95547.42
2019-02-05T07:01:16.602Z,95544.70
2019-02-05T07:03:45.247Z,95542.73
2019-02-05T07:06:13.869Z,95531.99
2019-02-05T07:08:42.740Z,95548.95
2019-02-05T07:11:11.456Z,95542.63
2019-02-05T07:13:40.393Z,95540.13
2019-02-05T07:16:09.143Z,95545.48
2019-02-05T07:18:37.767Z,95549.55
2019-02-05T07:21:06.389Z,95545.20
2019-02-05T07:23:35.082Z,95548.78
2019-02-05T07:26:03.738Z,95552.86
2019-02-05T07:28:32.387Z,95561.47
2019-02-05T07:31:01.436Z,95552.27
2019-02-05T07:33:29.990Z,95550.59
2019-02-05T07:35:58.546Z,95548.68
2019-02-05T07:38:27.235Z,95550.92
2019-02-05T07:40:55.872Z,95554.02
2019-02-05T07:43:24.520Z,95565.92
2019-02-05T07:45:53.202Z,95551.31
2019-02-05T07:48:21.829Z,95569.12
2019-02-05T07:50:50.776Z,95561.91
2019-02-05T07:53:19.693Z,95568.00
2019-02-05T07:55:48.258Z,95567.07
2019-02-05T07:58:16.950Z,95563.39
2019-02-05T08:00:45.704Z,95564.69
2019-02-05T08:03:14.336Z,95563.03
2019-02-05T08:05:42.960Z,95564.59
2019-02-05T08:08:12.114Z,95564.00
2019-02-05T08:10:40.752Z,95566.14
2019-02-05T08:13:09.777Z,95558.38
2019-02-05T08:15:38.447Z,95559.09
2019-02-05T08:18:08.600Z,95559.03
2019-02-05T08:20:37.236Z,95558.23
2019-02-05T08:23:05.887Z,95555.91
2019-02-05T08:25:34.616Z,95565.13
2019-02-05T08:28:03.811Z,95559.47
2019-02-05T08:30:41.588Z,95554.55
2019-02-05T08:33:10.201Z,95555.89
2019-02-05T08:35:38.905Z,95559.53
2019-02-05T08:38:07.860Z,95553.95
2019-02-05T08:40:36.507Z,95556.03
2019-02-05T08:43:06.002Z,95553.86
2019-02-05T08:45:36.874Z,95556.92
2019-02-05T08:48:07.636Z,95545.89
2019-02-05T08:50:36.570Z,95553.82
2019-02-05T08:53:05.766Z,95549.39
2019-02-05T08:55:34.419Z,95553.19
2019-02-05T08:58:08.414Z,95549.34
2019-02-05T09:00:42.235Z,95556.55
2019-02-05T09:03:11.861Z,95557.31
2019-02-05T09:05:40.916Z,95554.92
2019-02-05T09:08:09.821Z,95562.72
2019-02-05T09:10:42.476Z,95558.61
2019-02-05T09:13:11.458Z,95555.39
2019-02-05T09:15:40.088Z,95553.50
2019-02-05T09:18:09.106Z,95553.00
2019-02-05T09:20:37.746Z,95549.23
2019-02-05T09:23:07.022Z,95545.41
2019-02-05T09:25:35.666Z,95545.13
2019-02-05T09:28:04.720Z,95534.93
2019-02-05T09:30:37.578Z,95537.31
2019-02-05T09:33:12.176Z,95534.53
2019-02-05T09:35:40.852Z,95532.30
2019-02-05T09:38:09.476Z,95524.37
2019-02-05T09:40:38.116Z,95527.03
2019-02-05T09:43:06.792Z,95533.61
2019-02-05T09:45:35.766Z,95525.56
2019-02-05T09:48:04.593Z,95531.42
2019-02-05T09:50:44.316Z,95528.66
2019-02-05T09:53:03.979Z,95527.39
2019-02-05T09:55:32.602Z,95523.73
2019-02-05T09:58:01.150Z,95524.50
2019-02-05T10:00:38.068Z,95516.46
2019-02-05T10:03:07.431Z,95512.73
2019-02-05T10:05:36.832Z,95501.93
2019-02-05T10:08:06.180Z,95494.89
2019-02-05T10:10:34.970Z,95502.82
2019-02-05T10:13:03.957Z,95495.50
2019-02-05T10:15:41.176Z,95488.68
2019-02-05T10:18:11.899Z,95487.31
2019-02-05T10:20:40.660Z,95484.47
2019-02-05T10:23:10.113Z,95482.60
2019-02-05T10:25:38.839Z,95479.77
2019-02-05T10:28:07.479Z,95471.38
2019-02-05T10:30:38.710Z,95463.05
2019-02-05T10:33:07.939Z,95465.53
2019-02-05T10:35:36.667Z,95465.36
2019-02-05T10:38:05.936Z,95457.11
2019-02-05T10:40:34.688Z,95458.21
2019-02-05T10:43:03.255Z,95454.38
2019-02-05T10:45:31.887Z,95447.44
2019-02-05T10:48:00.634Z,95451.48
2019-02-05T10:50:29.262Z,95448.95
2019-02-05T10:52:57.920Z,95433.94
2019-02-05T10:55:26.551Z,95438.13
2019-02-05T10:57:56.172Z,95437.91
2019-02-05T11:00:30.041Z,95431.72
2019-02-05T11:03:00.673Z,95420.78
2019-02-05T11:05:30.473Z,95419.16
2019-02-05T11:07:59.722Z,95419.53
2019-02-05T11:10:28.326Z,95415.47
2019-02-05T11:12:57.079Z,95406.06
2019-02-05T11:15:28.264Z,95399.53
2019-02-05T11:17:56.903Z,95406.48
2019-02-05T11:20:27.615Z,95396.52
2019-02-05T11:22:56.379Z,95396.70
2019-02-05T11:25:25.306Z,95391.69
2019-02-05T11:27:53.938Z,95380.02
2019-02-05T11:30:31.683Z,95378.33
2019-02-05T11:33:00.313Z,95385.34
2019-02-05T11:35:29.423Z,95382.30
2019-02-05T11:37:58.196Z,95375.71
2019-02-05T11:40:29.628Z,95371.05
2019-02-05T11:42:58.265Z,95368.88
2019-02-05T11:45:26.958Z,95362.52
2019-02-05T11:47:55.997Z,95356.39
2019-02-05T11:50:25.135Z,95366.08
2019-02-05T11:52:54.081Z,95360.63
2019-02-05T11:55:27.887Z,95358.05
2019-02-05T11:57:56.610Z,95353.79
2019-02-05T12:00:39.501Z,95351.98
2019-02-05T12:03:09.670Z,95357.33
2019-02-05T12:05:38.513Z,95350.61
2019-02-05T12:08:07.494Z,95357.04
2019-02-05T12:10:36.122Z,95350.02
2019-02-05T12:13:05.062Z,95347.59
2019-02-05T12:15:33.723Z,95345.13
2019-02-05T12:18:02.450Z,95342.99
2019-02-05T12:20:31.113Z,95339.66
2019-02-05T12:23:00.409Z,95337.66
2019-02-05T12:25:29.041Z,95326.83
2019-02-05T12:27:57.666Z,95334.73
2019-02-05T12:30:45.184Z,95327.58
2019-02-05T12:33:10.749Z,95330.30
2019-02-05T12:35:39.492Z,95321.45
2019-02-05T12:38:09.193Z,95324.35
2019-02-05T12:40:37.845Z,95313.52
2019-02-05T12:43:06.486Z,95313.67
2019-02-05T12:45:37.266Z,95318.98
2019-02-05T12:48:06.397Z,95317.27
2019-02-05T12:50:37.634Z,95323.23
2019-02-05T12:53:06.928Z,95308.90
2019-02-05T12:55:35.569Z,95304.14
2019-02-05T12:58:04.817Z,95291.43
2019-02-05T13:00:36.273Z,95303.13
2019-02-05T13:03:05.380Z,95297.45
2019-02-05T13:05:34.007Z,95288.24
2019-02-05T13:08:05.344Z,95308.59
2019-02-05T13:10:35.814Z,95293.22
2019-02-05T13:13:06.264Z,95292.45
2019-02-05T13:15:34.992Z,95293.56
2019-02-05T13:18:03.912Z,95290.18
2019-02-05T13:20:32.764Z,95286.83
2019-02-05T13:23:03.045Z,95301.95
2019-02-05T13:25:35.011Z,95285.46
2019-02-05T13:28:05.062Z,95292.79
2019-02-05T13:30:35.470Z,95287.75
2019-02-05T13:33:05.108Z,95290.02
2019-02-05T13:35:34.085Z,95294.30
2019-02-05T13:38:02.752Z,95294.26
2019-02-05T13:40:31.379Z,95293.77
2019-02-05T13:43:00.615Z,95290.55
2019-02-05T13:45:31.972Z,95293.44
2019-02-05T13:48:00.740Z,95290.78
2019-02-05T13:50:33.394Z,95282.97
2019-02-05T13:53:02.250Z,95294.10
2019-02-05T13:55:33.186Z,95281.91
2019-02-05T13:58:01.991Z,95296.52
2019-02-05T14:00:45.234Z,95296.61
2019-02-05T14:03:13.968Z,95294.39
2019-02-05T14:05:42.782Z,95303.68
2019-02-05T14:08:11.450Z,95300.88
2019-02-05T14:10:42.281Z,95300.97
2019-02-05T14:13:11.129Z,95303.75
2019-02-05T14:15:45.019Z,95310.59
2019-02-05T14:18:13.715Z,95313.67
2019-02-05T14:20:42.345Z,95308.92
2019-02-05T14:23:11.212Z,95313.66
2019-02-05T14:25:40.054Z,95325.72
2019-02-05T14:28:08.688Z,95315.14
2019-02-05T14:30:42.607Z,95320.31
2019-02-05T14:33:11.228Z,95316.74
2019-02-05T14:35:40.107Z,95326.75
2019-02-05T14:38:09.302Z,95331.48
2019-02-05T14:40:37.932Z,95331.84
2019-02-05T14:43:07.145Z,95337.63
2019-02-05T14:45:36.347Z,95340.11
2019-02-05T14:48:06.411Z,95329.48
2019-02-05T14:50:39.900Z,95325.47
2019-02-05T14:53:09.983Z,95335.18
2019-02-05T14:55:38.632Z,95345.04
2019-02-05T14:58:09.267Z,95348.94
2019-02-05T15:00:38.575Z,95340.14
2019-02-05T15:03:12.056Z,95327.94
2019-02-05T15:05:41.217Z,95339.74
2019-02-05T15:08:10.552Z,95338.55
2019-02-05T15:10:39.239Z,95339.52
2019-02-05T15:13:07.959Z,95345.58
2019-02-05T15:15:36.744Z,95354.44
2019-02-05T15:18:07.280Z,95356.57
2019-02-05T15:20:44.064Z,95356.36
2019-02-05T15:23:12.792Z,95353.09
2019-02-05T15:25:41.615Z,95359.73
2019-02-05T15:28:10.634Z,95356.83
2019-02-05T15:30:45.765Z,95358.91
2019-02-05T15:33:33.666Z,95361.66
2019-02-05T15:36:03.945Z,95373.80
2019-02-05T15:38:32.775Z,95380.97
2019-02-05T15:41:01.453Z,95379.84
2019-02-05T15:43:30.051Z,95372.43
2019-02-05T15:45:58.669Z,95377.19
2019-02-05T15:48:27.362Z,95377.03
2019-02-05T15:50:55.988Z,95369.70
2019-02-05T15:53:25.099Z,95374.11
2019-02-05T15:55:53.780Z,95373.42
2019-02-05T15:58:22.354Z,95392.48
2019-02-05T16:00:50.918Z,95387.50
2019-02-05T16:03:19.594Z,95381.66
2019-02-05T16:05:48.235Z,95382.52
2019-02-05T16:08:16.742Z,95380.72
2019-02-05T16:10:52.913Z,95388.59
2019-02-05T16:13:21.550Z,95392.75
2019-02-05T16:15:50.189Z,95395.77
2019-02-05T16:18:18.863Z,95396.98
2019-02-05T16:20:47.524Z,95403.53
2019-02-05T16:23:16.511Z,95395.47
2019-02-05T16:25:45.118Z,95387.78
2019-02-05T16:28:13.746Z,95386.67
2019-02-05T16:30:42.413Z,95395.66
2019-02-05T16:33:11.097Z,95406.87
2019-02-05T16:35:39.661Z,95404.73
2019-02-05T16:38:08.312Z,95406.02
2019-02-05T16:40:39.182Z,95404.55
2019-02-05T16:43:07.943Z,95405.58
2019-02-05T16:45:36.583Z,95409.77
2019-02-05T16:48:06.010Z,95408.12
2019-02-05T16:50:37.431Z,95407.34
2019-02-05T16:53:08.140Z,95400.98
2019-02-05T16:55:36.776Z,95410.13
2019-02-05T16:58:06.882Z,95409.23
2019-02-05T17:00:36.706Z,95401.61
2019-02-05T17:03:06.589Z,95405.55
2019-02-05T17:05:37.958Z,95399.73
2019-02-05T17:08:07.067Z,95398.92
2019-02-05T17:10:35.832Z,95405.44
2019-02-05T17:13:05.360Z,95401.88
2019-02-05T17:15:34.065Z,95399.85
2019-02-05T17:18:02.745Z,95406.98
2019-02-05T17:20:32.685Z,95403.34
2019-02-05T17:23:01.326Z,95398.89
2019-02-05T17:25:30.201Z,95394.88
2019-02-05T17:28:03.279Z,95388.88
2019-02-05T17:30:34.435Z,95385.02
2019-02-05T17:33:03.193Z,95388.27
2019-02-05T17:35:31.929Z,95392.59
2019-02-05T17:38:09.242Z,95385.71
2019-02-05T17:40:38.084Z,95376.45
2019-02-05T17:43:07.318Z,95382.02
2019-02-05T17:45:38.544Z,95375.95
2019-02-05T17:48:10.122Z,95371.66
2019-02-05T17:50:38.820Z,95371.73
2019-02-05T17:53:07.574Z,95367.60
2019-02-05T17:55:36.209Z,95368.08
2019-02-05T17:58:05.347Z,95367.17
2019-02-05T18:00:36.539Z,95367.97
2019-02-05T18:03:05.790Z,95372.02
2019-02-05T18:05:34.997Z,95374.42
2019-02-05T18:08:04.784Z,95375.90
2019-02-05T18:10:33.410Z,95377.48
2019-02-05T18:13:02.048Z,95371.82
2019-02-05T18:15:54.105Z,95377.01
2019-02-05T18:18:22.970Z,95374.53
2019-02-05T18:20:51.600Z,95373.47
2019-02-05T18:23:20.230Z,95373.08
2019-02-05T18:25:48.882Z,95371.72
2019-02-05T18:28:17.570Z,95384.54
2019-02-05T18:30:46.301Z,95378.70
2019-02-05T18:33:15.311Z,95373.19
2019-02-05T18:35:44.064Z,95384.48
2019-02-05T18:38:15.300Z,95386.91
2019-02-05T18:40:43.934Z,95392.45
2019-02-05T18:43:12.622Z,95385.61
2019-02-05T18:45:41.262Z,95378.38
2019-02-05T18:48:10.295Z,95389.14
2019-02-05T18:50:38.962Z,95382.59
2019-02-05T18:53:07.598Z,95380.46
2019-02-05T18:55:38.732Z,95387.97
2019-02-05T18:58:09.652Z,95386.80
2019-02-05T19:00:40.911Z,95384.02
2019-02-05T19:03:15.613Z,95373.48
2019-02-05T19:05:41.472Z,95369.33
2019-02-05T19:08:10.700Z,95371.72
2019-02-05T19:10:39.897Z,95375.09
2019-02-05T19:13:09.089Z,95375.20
2019-02-05T19:15:39.786Z,95368.03
2019-02-05T19:18:09.323Z,95373.40
2019-02-05T19:20:46.721Z,95373.88
2019-02-05T19:23:15.204Z,95376.05
2019-02-05T19:25:48.424Z,95375.17
2019-02-05T19:28:21.579Z,95375.39
2019-02-05T19:30:51.836Z,95378.87
2019-02-05T19:33:27.322Z,95372.91
2019-02-05T19:35:50.774Z,95375.60
2019-02-05T19:38:19.601Z,95369.75
2019-02-05T19:40:57.200Z,95362.58
2019-02-05T19:43:18.766Z,95351.30
2019-02-05T19:45:51.969Z,95347.06
2019-02-05T19:48:25.246Z,95358.09
2019-02-05T19:50:54.085Z,95347.39
2019-02-05T19:53:28.609Z,95341.00
2019-02-05T19:55:57.663Z,95337.72
2019-02-05T19:58:26.284Z,95351.04
2019-02-05T20:00:55.385Z,95341.66
2019-02-05T20:03:24.038Z,95343.91
2019-02-05T20:05:52.669Z,95334.02
2019-02-05T20:08:21.293Z,95334.53
2019-02-05T20:10:50.034Z,95332.88
2019-02-05T20:13:18.656Z,95331.15
2019-02-05T20:15:47.386Z,95341.81
2019-02-05T20:18:16.332Z,95336.84
2019-02-05T20:20:44.957Z,95346.37
2019-02-05T20:23:13.600Z,95334.53
2019-02-05T20:25:49.626Z,95337.36
2019-02-05T20:28:18.247Z,95342.91
2019-02-05T20:30:46.872Z,95335.92
2019-02-05T20:33:15.740Z,95340.78
2019-02-05T20:35:44.369Z,95336.03
2019-02-05T20:38:12.987Z,95328.64
2019-02-05T20:40:41.681Z,95333.60
2019-02-05T20:43:10.282Z,95338.50
2019-02-05T20:45:38.899Z,95323.05
2019-02-05T20:48:07.949Z,95326.95
2019-02-05T20:50:36.850Z,95324.00
2019-02-05T20:53:13.320Z,95316.23
2019-02-05T20:55:36.051Z,95308.66
2019-02-05T20:58:13.753Z,95309.89
2019-02-05T21:00:42.547Z,95312.23
2019-02-05T21:03:11.162Z,95313.08
2019-02-05T21:05:40.156Z,95303.04
2019-02-05T21:08:08.811Z,95310.36
2019-02-05T21:10:37.430Z,95309.69
2019-02-05T21:13:06.055Z,95313.85
2019-02-05T21:15:34.634Z,95303.66
2019-02-05T21:18:03.256Z,95307.56
2019-02-05T21:20:33.931Z,95306.89
2019-02-05T21:23:03.558Z,95303.04
2019-02-05T21:25:32.390Z,95305.84
2019-02-05T21:28:01.101Z,95308.16
2019-02-05T21:30:29.756Z,95306.58
2019-02-05T21:32:58.368Z,95295.80
2019-02-05T21:35:26.924Z,95296.41
2019-02-05T21:37:55.582Z,95301.67
2019-02-05T21:40:27.946Z,95309.00
2019-02-05T21:42:56.592Z,95304.63
2019-02-05T21:45:27.523Z,95295.12
2019-02-05T21:47:56.130Z,95304.84
2019-02-05T21:50:24.844Z,95306.50
2019-02-05T21:52:53.658Z,95311.44
2019-02-05T21:55:23.472Z,95301.91
2019-02-05T21:57:52.435Z,95306.50
2019-02-05T22:00:26.508Z,95305.06
2019-02-05T22:02:55.573Z,95290.44
2019-02-05T22:05:25.130Z,95287.71
2019-02-05T22:07:53.723Z,95295.55
2019-02-05T22:10:22.617Z,95291.13
2019-02-05T22:12:51.262Z,95289.84
2019-02-05T22:15:20.855Z,95302.67
2019-02-05T22:17:49.479Z,95301.22
2019-02-05T22:20:24.626Z,95294.52
2019-02-05T22:22:56.087Z,95301.73
2019-02-05T22:25:33.532Z,95310.33
2019-02-05T22:28:02.152Z,95294.19
2019-02-05T22:30:35.727Z,95298.64
2019-02-05T22:33:05.898Z,95293.56
2019-02-05T22:35:34.508Z,95288.12
2019-02-05T22:38:03.131Z,95274.82
2019-02-05T22:40:31.808Z,95276.62
2019-02-05T22:43:00.423Z,95277.88
2019-02-05T22:45:31.479Z,95264.64
2019-02-05T22:48:00.152Z,95264.49
2019-02-05T22:50:33.859Z,95264.72
2019-02-05T22:53:04.481Z,95259.72
2019-02-05T22:55:33.157Z,95264.20
2019-02-05T22:58:05.918Z,95271.08
2019-02-05T23:00:54.291Z,95256.08
2019-02-05T23:03:32.209Z,95269.67
2019-02-05T23:06:07.002Z,95261.77
2019-02-05T23:08:35.959Z,95256.84
2019-02-05T23:11:24.444Z,95253.09
2019-02-05T23:13:53.109Z,95251.73
2019-02-05T23:16:21.794Z,95246.45
2019-02-05T23:18:50.396Z,95240.42
2019-02-05T23:21:19.011Z,95231.50
2019-02-05T23:23:47.745Z,95224.36
2019-02-05T23:26:16.632Z,95216.76
2019-02-05T23:28:45.299Z,95221.86
2019-02-05T23:31:13.915Z,95215.77
2019-02-05T23:33:44.744Z,95225.17
2019-02-05T23:36:12.940Z,95224.66
2019-02-05T23:38:42.289Z,95224.88
2019-02-05T23:41:11.542Z,95216.31
2019-02-05T23:43:40.172Z,95212.31
2019-02-05T23:46:08.804Z,95213.73
2019-02-05T23:48:37.475Z,95226.44
2019-02-05T23:51:06.116Z,95219.70
2019-02-05T23:53:34.822Z,95223.55
2019-02-05T23:56:03.491Z,95216.94
2019-02-05T23:58:32.433Z,95231.43
